Time;durP1;ratioP1;P1;durP2;ratioP2;P2;SDS_P1;SDS_P2;PMS_P1;PMS_P2;Temp;Humidity;BMP_temperature;BMP_pressure;BME280_temperature;BME280_humidity;BME280_pressure;Samples;Min_cycle;Max_cycle;Signal;HPM_P1;HPM_P2
2022/07/02 00:00:02;;;;;;;;;;;;;;;14.05;54.51;96558.28;6371653;27;20304;-68
2022/07/02 00:03:07;;;;;;;;;;;;;;;13.99;54.81;96564.09;6371651;27;19924;-68
2022/07/02 00:06:12;;;;;;;;;;;;;;;13.85;54.77;96571.34;6372227;27;20388;-66
2022/07/02 00:09:14;;;;;;;;;;;;;;;13.74;55.06;96568.75;6372096;27;20406;-68
2022/07/02 00:12:15;;;;;;;;;;;;;;;13.64;55.73;96567.81;6371998;27;19923;-67
2022/07/02 00:15:17;;;;;;;;;;;;;;;13.59;55.60;96559.47;6371107;27;19923;-68
2022/07/02 00:18:18;;;;;;;;;;;;;;;13.49;55.68;96569.91;6371355;27;20316;-68
2022/07/02 00:21:23;;;;;;;;;;;;;;;13.45;55.49;96569.34;6372054;27;20312;-68
2022/07/02 00:24:26;;;;;;;;;;;;;;;13.45;55.70;96564.06;6371859;27;19924;-67
2022/07/02 00:27:30;;;;;;;;;;;;;;;13.43;55.80;96565.97;6370886;27;19946;-68
2022/07/02 00:30:32;;;;;;;;;;;;;;;13.42;55.75;96569.59;6371888;27;19923;-67
2022/07/02 00:33:34;;;;;;;;;;;;;;;13.40;55.75;96566.22;6370965;27;20344;-67
2022/07/02 00:36:35;;;;;;;;;;;;;;;13.42;55.96;96563.47;6370609;27;20023;-67
2022/07/02 00:39:38;;;;;;;;;;;;;;;13.47;55.70;96566.56;6370721;27;20300;-69
2022/07/02 00:42:44;;;;;;;;;;;;;;;13.57;54.97;96577.25;6371532;27;19927;-68
2022/07/02 00:45:45;;;;;;;;;;;;;;;13.68;55.12;96574.56;6370899;27;19924;-67
2022/07/02 00:48:52;;;;;;;;;;;;;;;13.86;54.57;96578.31;6371606;27;19923;-68
2022/07/02 00:51:55;;;;;;;;;;;;;;;14.08;54.59;96582.66;6371202;27;20381;-67
2022/07/02 00:54:58;;;;;;;;;;;;;;;14.31;54.12;96588.66;6370686;28;19923;-67
2022/07/02 00:58:01;;;;;;;;;;;;;;;14.48;53.89;96579.28;6371288;28;19924;-68
2022/07/02 01:01:03;;;;;;;;;;;;;;;14.64;53.10;96591.28;6370533;28;19923;-68
2022/07/02 01:04:05;;;;;;;;;;;;;;;14.74;53.12;96579.72;6370541;28;19924;-67
2022/07/02 01:07:10;;;;;;;;;;;;;;;14.79;52.94;96582.81;6369811;28;19923;-67
2022/07/02 01:10:17;;;;;;;;;;;;;;;14.80;52.81;96589.81;6370358;28;20508;-67
2022/07/02 01:13:18;;;;;;;;;;;;;;;14.82;53.39;96584.38;6371334;28;20022;-67
2022/07/02 01:16:22;;;;;;;;;;;;;;;14.85;53.22;96596.53;6370145;28;19930;-68
2022/07/02 01:19:23;;;;;;;;;;;;;;;14.91;52.97;96601.28;6370541;28;19929;-67
2022/07/02 01:22:36;;;;;;;;;;;;;;;15.02;53.07;96603.84;6371129;28;20061;-69
2022/07/02 01:25:38;;;;;;;;;;;;;;;15.18;52.50;96601.53;6370855;28;19923;-67
2022/07/02 01:28:41;;;;;;;;;;;;;;;15.35;52.85;96593.91;6374624;27;19923;-67
2022/07/02 01:31:44;;;;;;;;;;;;;;;15.52;51.94;96601.19;6375982;27;19924;-67
2022/07/02 01:34:50;;;;;;;;;;;;;;;15.62;52.04;96607.34;6374897;27;19930;-68
2022/07/02 01:37:53;;;;;;;;;;;;;;;15.75;51.90;96612.44;6375775;27;19927;-67
2022/07/02 01:41:38;;;;;;;;;;;;;;;15.92;51.10;96605.59;6375931;27;20404;-67
2022/07/02 01:44:20;;;;;;;;;;;;;;;16.08;51.11;96608.53;6374773;27;19931;-67
2022/07/02 01:47:21;;;;;;;;;;;;;;;16.20;51.22;96605.75;6375729;27;19927;-67
2022/07/02 01:50:22;;;;;;;;;;;;;;;16.33;50.96;96600.97;6374347;27;19924;-67
2022/07/02 01:53:25;;;;;;;;;;;;;;;16.44;50.65;96608.78;6374587;27;20483;-67
2022/07/02 01:56:32;;;;;;;;;;;;;;;16.52;50.33;96600.94;6375352;27;19923;-67
2022/07/02 01:59:34;;;;;;;;;;;;;;;16.66;50.16;96606.78;6374245;27;19968;-67
2022/07/02 02:02:35;;;;;;;;;;;;;;;16.81;50.17;96600.03;6374146;27;19930;-67
2022/07/02 02:05:41;;;;;;;;;;;;;;;16.94;49.50;96597.91;6375266;27;20392;-68
2022/07/02 02:08:44;;;;;;;;;;;;;;;17.00;49.40;96601.81;6375180;27;19931;-68
2022/07/02 02:11:48;;;;;;;;;;;;;;;17.00;49.85;96604.47;6375269;27;19923;-67
2022/07/02 02:14:51;;;;;;;;;;;;;;;16.97;49.58;96604.75;6375009;27;19928;-68
2022/07/02 02:17:52;;;;;;;;;;;;;;;16.89;50.08;96602.81;6373450;27;19923;-67
2022/07/02 02:20:56;;;;;;;;;;;;;;;16.73;50.57;96602.56;6374504;27;20025;-67
2022/07/02 02:23:58;;;;;;;;;;;;;;;16.66;50.97;96607.63;6374873;27;19926;-67
2022/07/02 02:26:59;;;;;;;;;;;;;;;16.68;50.96;96602.19;6374549;27;20383;-68
2022/07/02 02:30:01;;;;;;;;;;;;;;;16.78;50.33;96600.34;6374552;27;19934;-67
2022/07/02 02:33:07;;;;;;;;;;;;;;;16.97;50.04;96605.59;6374822;27;19923;-67
2022/07/02 02:36:08;;;;;;;;;;;;;;;17.17;49.60;96601.03;6354954;27;19929;-68
2022/07/02 02:39:12;;;;;;;;;;;;;;;17.34;49.35;96596.75;6372873;27;19924;-67
2022/07/02 02:42:13;;;;;;;;;;;;;;;17.49;49.23;96592.63;6373367;27;19931;-68
2022/07/02 02:45:14;;;;;;;;;;;;;;;17.65;48.93;96599.91;6374066;27;19930;-68
2022/07/02 02:48:16;;;;;;;;;;;;;;;17.80;48.40;96600.25;6374255;27;19923;-69
2022/07/02 02:51:19;;;;;;;;;;;;;;;17.96;48.03;96607.59;6374013;27;20423;-69
2022/07/02 02:54:23;;;;;;;;;;;;;;;18.08;47.85;96610.84;6374001;27;19924;-68
2022/07/02 02:57:24;;;;;;;;;;;;;;;18.13;48.04;96614.72;6373075;27;19923;-68
2022/07/02 03:00:30;;;;;;;;;;;;;;;18.15;47.74;96606.59;6374002;27;19923;-67
2022/07/02 03:03:31;;;;;;;;;;;;;;;18.20;47.78;96609.63;6373067;27;20292;-68
2022/07/02 03:06:35;;;;;;;;;;;;;;;18.36;47.64;96609.75;6373307;27;19923;-68
2022/07/02 03:09:36;;;;;;;;;;;;;;;18.57;47.14;96600.59;6373042;27;20399;-68
2022/07/02 03:12:39;;;;;;;;;;;;;;;18.81;46.71;96598.13;6372969;27;19929;-67
2022/07/02 03:15:40;;;;;;;;;;;;;;;18.98;46.54;96598.22;6372936;27;20277;-68
2022/07/02 03:18:44;;;;;;;;;;;;;;;19.24;46.14;96601.66;6373358;27;19923;-67
2022/07/02 03:21:45;;;;;;;;;;;;;;;19.56;45.14;96608.16;6372321;27;19920;-68
2022/07/02 03:24:49;;;;;;;;;;;;;;;19.81;44.98;96609.06;6373373;27;19923;-68
2022/07/02 03:27:53;;;;;;;;;;;;;;;19.94;44.91;96611.28;6372920;27;19924;-68
2022/07/02 03:30:54;;;;;;;;;;;;;;;20.12;44.66;96603.94;6372555;27;20146;-68
2022/07/02 03:34:00;;;;;;;;;;;;;;;20.17;44.49;96600.78;6372482;27;19931;-68
2022/07/02 03:37:07;;;;;;;;;;;;;;;20.21;44.42;96606.63;6373171;27;19923;-67
2022/07/02 03:40:08;;;;;;;;;;;;;;;20.33;44.52;96610.66;6372117;27;19924;-68
2022/07/02 03:43:14;;;;;;;;;;;;;;;20.59;43.89;96616.69;6372711;27;19929;-68
2022/07/02 03:46:18;;;;;;;;;;;;;;;20.87;43.41;96608.28;6372528;27;19923;-68
2022/07/02 03:49:23;;;;;;;;;;;;;;;21.17;42.71;96598.66;6371414;27;19934;-68
2022/07/02 03:52:29;;;;;;;;;;;;;;;21.46;42.33;96595.41;6372501;27;19943;-68
2022/07/02 03:55:30;;;;;;;;;;;;;;;21.67;42.02;96599.31;6371404;27;19930;-67
2022/07/02 03:58:34;;;;;;;;;;;;;;;21.90;41.59;96600.19;6371572;27;19923;-67
2022/07/02 04:01:37;;;;;;;;;;;;;;;22.20;41.15;96600.38;6371581;27;19923;-67
2022/07/02 04:04:38;;;;;;;;;;;;;;;22.53;40.39;96597.41;6372455;27;19923;-67
2022/07/02 04:07:39;;;;;;;;;;;;;;;22.61;40.07;96598.16;6372129;27;20315;-67
2022/07/02 04:10:44;;;;;;;;;;;;;;;22.80;39.59;96599.50;6372183;27;20141;-67
2022/07/02 04:13:49;;;;;;;;;;;;;;;23.09;39.14;96596.03;6372161;27;19923;-67
2022/07/02 04:16:53;;;;;;;;;;;;;;;23.39;38.78;96595.22;6371975;27;19923;-69
2022/07/02 04:19:56;;;;;;;;;;;;;;;23.59;38.10;96607.03;6371680;27;20018;-67
2022/07/02 04:23:00;;;;;;;;;;;;;;;23.73;37.31;96600.84;6371842;27;19923;-68
2022/07/02 04:26:05;;;;;;;;;;;;;;;23.87;37.39;96611.75;6353877;27;19927;-67
2022/07/02 04:29:07;;;;;;;;;;;;;;;24.03;36.40;96603.44;6370647;27;19923;-68
2022/07/02 04:32:08;;;;;;;;;;;;;;;24.10;36.29;96598.97;6371384;27;19930;-67
2022/07/02 04:35:14;;;;;;;;;;;;;;;24.43;35.79;96603.88;6371756;27;20392;-68
2022/07/02 04:38:16;;;;;;;;;;;;;;;24.81;35.56;96606.25;6370529;27;19930;-67
2022/07/02 04:41:20;;;;;;;;;;;;;;;25.10;34.77;96605.19;6371478;27;20369;-67
2022/07/02 04:44:21;;;;;;;;;;;;;;;25.38;34.28;96609.75;6371405;27;19926;-67
2022/07/02 04:47:22;;;;;;;;;;;;;;;25.90;33.93;96611.91;6371439;27;20300;-68
2022/07/02 04:50:25;;;;;;;;;;;;;;;26.42;33.30;96613.03;6371545;27;20010;-67
2022/07/02 04:53:29;;;;;;;;;;;;;;;26.86;32.83;96617.03;6352906;27;19930;-67
2022/07/02 04:56:35;;;;;;;;;;;;;;;27.13;32.27;96622.41;6371225;28;19928;-67
2022/07/02 04:59:39;;;;;;;;;;;;;;;27.38;31.61;96619.06;6371319;28;20307;-68
2022/07/02 05:02:40;;;;;;;;;;;;;;;28.94;29.97;96624.09;6373151;27;20007;-67
2022/07/02 05:05:43;;;;;;;;;;;;;;;30.47;28.36;96627.00;6375728;27;19950;-67
2022/07/02 05:08:44;;;;;;;;;;;;;;;31.05;27.51;96629.81;6376009;27;19923;-67
2022/07/02 05:11:48;;;;;;;;;;;;;;;32.18;25.84;96622.25;6376553;27;19919;-67
2022/07/02 05:14:52;;;;;;;;;;;;;;;35.09;23.00;96639.16;6376408;27;20308;-68
2022/07/02 05:17:53;;;;;;;;;;;;;;;38.31;20.12;96638.91;6376142;27;20307;-67
2022/07/02 05:20:58;;;;;;;;;;;;;;;40.22;18.24;96628.75;6375887;27;19943;-67
2022/07/02 05:24:01;;;;;;;;;;;;;;;42.66;17.86;96632.97;6376005;27;20377;-66
2022/07/02 05:27:05;;;;;;;;;;;;;;;43.21;16.72;96638.34;6375689;27;19980;-67
2022/07/02 05:30:07;;;;;;;;;;;;;;;43.33;16.08;96634.19;6375883;27;19966;-67
2022/07/02 05:33:13;;;;;;;;;;;;;;;43.18;17.09;96633.44;6375049;27;20312;-67
2022/07/02 05:36:17;;;;;;;;;;;;;;;43.23;17.41;96625.00;6375784;27;19923;-67
2022/07/02 05:39:21;;;;;;;;;;;;;;;42.60;15.63;96623.97;6372662;27;20408;-66
2022/07/02 05:42:27;;;;;;;;;;;;;;;41.54;17.12;96624.25;6375717;27;20330;-67
2022/07/02 05:45:30;;;;;;;;;;;;;;;41.22;17.15;96615.69;6375625;27;19933;-67
2022/07/02 05:48:34;;;;;;;;;;;;;;;43.10;15.11;96612.03;6374932;27;19928;-67
2022/07/02 05:51:36;;;;;;;;;;;;;;;45.61;13.79;96610.94;6374868;27;19927;-68
2022/07/02 05:54:39;;;;;;;;;;;;;;;48.00;12.40;96609.94;6374632;27;19999;-67
2022/07/02 05:57:42;;;;;;;;;;;;;;;50.16;10.12;96617.69;6374836;27;19923;-66
2022/07/02 06:00:48;;;;;;;;;;;;;;;52.00;10.35;96621.06;6375402;27;20389;-68
2022/07/02 06:03:54;;;;;;;;;;;;;;;53.40;9.98;96618.16;6375331;27;19923;-67
2022/07/02 06:10:23;;;;;;;;;;;;;;;54.12;7.61;96607.56;6374915;27;19927;-66
2022/07/02 06:13:27;;;;;;;;;;;;;;;53.37;9.02;96607.69;6374585;27;19929;-67
2022/07/02 06:16:30;;;;;;;;;;;;;;;50.20;10.35;96599.00;6374874;27;19924;-67
2022/07/02 06:19:37;;;;;;;;;;;;;;;46.34;12.02;96588.47;6374619;27;19923;-67
2022/07/02 06:22:41;;;;;;;;;;;;;;;43.30;13.55;96576.66;6374268;27;20022;-66
2022/07/02 06:25:42;;;;;;;;;;;;;;;41.18;14.65;96561.38;6373358;27;19923;-68
2022/07/02 06:28:45;;;;;;;;;;;;;;;39.62;15.71;96548.47;6374067;27;19923;-68
2022/07/02 06:31:49;;;;;;;;;;;;;;;38.43;15.87;96538.84;6374423;27;19924;-67
2022/07/02 06:34:51;;;;;;;;;;;;;;;37.52;16.47;96542.56;6374001;27;19923;-67
2022/07/02 06:37:54;;;;;;;;;;;;;;;37.04;16.16;96535.81;6373935;27;20390;-67
2022/07/02 06:40:56;;;;;;;;;;;;;;;38.50;14.83;96545.66;6372579;27;19923;-66
2022/07/02 06:44:00;;;;;;;;;;;;;;;39.82;14.24;96542.72;6373965;27;19919;-69
2022/07/02 06:47:03;;;;;;;;;;;;;;;42.89;12.43;96550.84;6373272;27;19931;-67
2022/07/02 06:50:07;;;;;;;;;;;;;;;46.16;9.56;96553.56;6373974;27;19919;-68
2022/07/02 06:53:08;;;;;;;;;;;;;;;48.64;9.16;96565.69;6354678;27;19931;-67
2022/07/02 06:56:09;;;;;;;;;;;;;;;50.59;8.21;96568.25;6355249;27;20018;-67
2022/07/02 06:59:12;;;;;;;;;;;;;;;51.59;7.50;96573.06;6373215;27;20304;-67
2022/07/02 07:02:16;;;;;;;;;;;;;;;52.57;7.84;96578.16;6373367;27;19923;-67
2022/07/02 07:05:20;;;;;;;;;;;;;;;54.18;5.21;96577.81;6374223;27;20362;-66
2022/07/02 07:08:24;;;;;;;;;;;;;;;55.68;6.46;96588.09;6373312;27;20008;-66
2022/07/02 07:11:25;;;;;;;;;;;;;;;56.87;6.23;96584.66;6372850;27;19931;-66
2022/07/02 07:14:29;;;;;;;;;;;;;;;57.58;5.75;96579.81;6373322;27;19927;-66
2022/07/02 07:17:32;;;;;;;;;;;;;;;57.64;5.67;96574.50;6372170;27;19924;-67
2022/07/02 07:20:36;;;;;;;;;;;;;;;58.14;5.13;96580.56;6355004;27;19927;-67
2022/07/02 07:23:40;;;;;;;;;;;;;;;58.42;3.43;96575.84;6373345;27;19923;-67
2022/07/02 07:26:46;;;;;;;;;;;;;;;58.75;4.69;96579.09;6372382;27;20018;-67
2022/07/02 07:29:52;;;;;;;;;;;;;;;58.44;4.53;96577.03;6373019;27;19923;-68
2022/07/02 07:32:56;;;;;;;;;;;;;;;58.17;5.08;96570.44;6372051;27;20025;-67
2022/07/02 07:35:58;;;;;;;;;;;;;;;58.87;4.31;96564.38;6372550;27;20396;-66
2022/07/02 07:39:03;;;;;;;;;;;;;;;59.59;2.82;96574.72;6372950;27;19923;-66
2022/07/02 07:42:05;;;;;;;;;;;;;;;57.65;2.67;96565.63;6372604;27;19945;-67
2022/07/02 07:45:11;;;;;;;;;;;;;;;55.35;4.02;96559.84;6372724;27;19924;-67
2022/07/02 07:48:13;;;;;;;;;;;;;;;55.11;3.88;96550.09;6371778;27;19923;-67
2022/07/02 07:51:17;;;;;;;;;;;;;;;55.30;4.18;96540.50;6371922;27;19929;-66
2022/07/02 07:54:22;;;;;;;;;;;;;;;56.22;3.31;96544.50;6372523;27;19927;-68
2022/07/02 07:57:26;;;;;;;;;;;;;;;55.03;3.17;96540.00;6373642;27;19924;-68
2022/07/02 08:00:30;;;;;;;;;;;;;;;53.74;3.39;96536.50;6372292;27;19954;-68
2022/07/02 08:03:33;;;;;;;;;;;;;;;52.84;3.68;96517.13;6373940;27;20408;-67
2022/07/02 08:06:34;;;;;;;;;;;;;;;53.84;4.10;96532.13;6372715;27;19923;-69
2022/07/02 08:09:37;;;;;;;;;;;;;;;54.75;3.13;96525.81;6372565;27;19924;-68
2022/07/02 08:12:41;;;;;;;;;;;;;;;55.26;3.22;96528.38;6375036;27;19923;-68
2022/07/02 08:15:44;;;;;;;;;;;;;;;56.28;3.41;96525.13;6374118;27;20397;-68
2022/07/02 08:18:47;;;;;;;;;;;;;;;57.10;2.72;96521.91;6374887;27;19924;-67
2022/07/02 08:21:50;;;;;;;;;;;;;;;56.06;2.42;96518.72;6372971;27;19924;-68
2022/07/02 08:24:54;;;;;;;;;;;;;;;54.03;3.02;96515.00;6372703;27;19963;-67
2022/07/02 08:28:00;;;;;;;;;;;;;;;52.14;3.73;96501.78;6372753;27;19923;-68
2022/07/02 08:31:04;;;;;;;;;;;;;;;52.26;4.00;96498.72;6353780;27;19923;-67
2022/07/02 08:34:11;;;;;;;;;;;;;;;53.10;3.40;96499.34;6371384;27;19923;-67
2022/07/02 08:37:13;;;;;;;;;;;;;;;52.72;3.73;96492.94;6370981;27;19925;-68
2022/07/02 08:40:20;;;;;;;;;;;;;;;52.14;3.88;96490.56;6372336;27;19927;-68
2022/07/02 08:43:23;;;;;;;;;;;;;;;53.10;3.48;96496.53;6371277;27;19976;-67
2022/07/02 08:46:26;;;;;;;;;;;;;;;54.24;3.15;96499.41;6370957;27;19924;-66
2022/07/02 08:49:32;;;;;;;;;;;;;;;55.07;2.95;96504.19;6371247;27;19923;-67
2022/07/02 08:52:34;;;;;;;;;;;;;;;55.30;2.76;96500.22;6370129;27;19930;-66
2022/07/02 08:55:36;;;;;;;;;;;;;;;54.70;2.94;96496.84;6370535;27;19923;-67
2022/07/02 08:58:40;;;;;;;;;;;;;;;53.54;3.15;96498.56;6369463;28;19923;-66
2022/07/02 09:01:42;;;;;;;;;;;;;;;52.49;3.56;96474.19;6352117;28;19930;-66
2022/07/02 09:04:48;;;;;;;;;;;;;;;53.01;3.25;96476.38;6371270;28;20022;-66
2022/07/02 09:07:52;;;;;;;;;;;;;;;52.56;3.73;96472.66;6371024;28;20300;-67
2022/07/02 09:10:56;;;;;;;;;;;;;;;50.73;4.26;96470.59;6370904;28;19923;-66
2022/07/02 09:14:00;;;;;;;;;;;;;;;50.15;4.63;96456.56;6371079;28;19927;-67
2022/07/02 09:17:05;;;;;;;;;;;;;;;49.78;4.71;96456.94;6352445;28;19927;-67
2022/07/02 09:20:08;;;;;;;;;;;;;;;49.78;4.84;96459.75;6352858;28;19923;-67
2022/07/02 09:23:21;;;;;;;;;;;;;;;50.32;4.63;96461.75;6370737;28;20396;-67
2022/07/02 09:26:25;;;;;;;;;;;;;;;51.30;4.21;96453.16;6370596;28;20011;-68
2022/07/02 09:29:39;;;;;;;;;;;;;;;50.69;4.65;96463.28;6370587;28;19924;-66
2022/07/02 09:32:43;;;;;;;;;;;;;;;49.52;4.98;96459.50;6370795;28;19923;-66
2022/07/02 09:35:47;;;;;;;;;;;;;;;48.52;5.20;96444.53;6370774;28;19923;-66
2022/07/02 09:38:52;;;;;;;;;;;;;;;49.03;4.88;96452.28;6370737;28;19923;-66
2022/07/02 09:41:56;;;;;;;;;;;;;;;50.10;4.73;96452.06;6370835;28;19923;-66
2022/07/02 09:45:03;;;;;;;;;;;;;;;49.83;4.73;96462.25;6370703;28;19924;-66
2022/07/02 09:48:07;;;;;;;;;;;;;;;50.18;4.68;96450.22;6372551;27;20396;-67
2022/07/02 09:51:11;;;;;;;;;;;;;;;50.57;4.48;96455.84;6375628;27;19924;-67
2022/07/02 09:54:19;;;;;;;;;;;;;;;50.23;4.32;96446.34;6375555;27;19923;-67
2022/07/02 09:57:23;;;;;;;;;;;;;;;49.69;4.88;96439.56;6374237;27;19988;-67
2022/07/02 10:00:27;;;;;;;;;;;;;;;49.74;4.74;96442.06;6356462;27;20430;-68
2022/07/02 10:03:44;;;;;;;;;;;;;;;48.90;4.67;96429.22;6375451;27;19923;-67
2022/07/02 10:06:45;;;;;;;;;;;;;;;46.38;5.98;96420.88;6356169;27;20408;-67
2022/07/02 10:09:49;;;;;;;;;;;;;;;42.75;7.82;96415.34;6374410;27;20356;-67
2022/07/02 10:12:53;;;;;;;;;;;;;;;39.73;9.16;96412.28;6374871;27;19923;-67
2022/07/02 10:16:00;;;;;;;;;;;;;;;39.01;9.52;96412.34;6374448;27;20432;-67
2022/07/02 10:19:05;;;;;;;;;;;;;;;41.49;9.17;96418.84;6374810;27;19930;-67
2022/07/02 10:22:13;;;;;;;;;;;;;;;42.80;8.88;96429.00;6374860;27;19923;-66
2022/07/02 10:25:17;;;;;;;;;;;;;;;41.34;9.74;96421.13;6374400;27;19934;-67
2022/07/02 10:28:21;;;;;;;;;;;;;;;39.35;11.14;96423.28;6374228;27;20397;-67
2022/07/02 10:31:25;;;;;;;;;;;;;;;37.75;12.22;96420.28;6374597;27;19930;-68
2022/07/02 10:34:37;;;;;;;;;;;;;;;36.34;13.91;96417.69;6374268;27;20012;-67
2022/07/02 10:37:39;;;;;;;;;;;;;;;34.99;14.49;96408.56;6373565;27;19931;-66
2022/07/02 10:40:49;;;;;;;;;;;;;;;33.98;15.39;96405.69;6373671;27;20064;-67
2022/07/02 10:43:53;;;;;;;;;;;;;;;33.23;15.80;96409.25;6374451;27;19923;-67
2022/07/02 10:47:01;;;;;;;;;;;;;;;32.96;16.35;96410.00;6374459;27;19946;-67
2022/07/02 10:50:02;;;;;;;;;;;;;;;34.11;15.77;96414.53;6373157;27;19930;-67
2022/07/02 10:53:11;;;;;;;;;;;;;;;35.93;14.44;96414.94;6373968;27;19923;-67
2022/07/02 10:56:12;;;;;;;;;;;;;;;37.02;14.19;96422.81;6372965;27;19956;-68
2022/07/02 10:59:23;;;;;;;;;;;;;;;37.45;14.06;96425.91;6354191;27;19923;-68
2022/07/02 11:02:33;;;;;;;;;;;;;;;38.25;13.23;96416.66;6372863;27;19924;-68
2022/07/02 11:05:50;;;;;;;;;;;;;;;38.94;12.94;96431.97;6373837;27;19923;-68
2022/07/02 11:08:58;;;;;;;;;;;;;;;38.94;12.84;96423.72;6373410;27;19923;-68
2022/07/02 11:12:02;;;;;;;;;;;;;;;38.70;13.00;96415.44;6373031;27;19923;-66
2022/07/02 11:15:15;;;;;;;;;;;;;;;38.79;13.20;96423.88;6373378;27;19923;-68
2022/07/02 11:18:18;;;;;;;;;;;;;;;38.51;13.28;96417.28;6372476;27;19929;-68
2022/07/02 11:21:23;;;;;;;;;;;;;;;38.71;12.81;96419.00;6373265;27;20399;-68
2022/07/02 11:24:25;;;;;;;;;;;;;;;39.10;12.40;96415.28;6373186;27;19924;-68
2022/07/02 11:27:29;;;;;;;;;;;;;;;38.20;12.94;96420.28;6371988;27;19923;-68
2022/07/02 11:30:37;;;;;;;;;;;;;;;36.44;14.29;96412.22;6354359;27;20227;-68
2022/07/02 11:33:43;;;;;;;;;;;;;;;35.41;14.84;96410.41;6372882;27;19931;-68
2022/07/02 11:36:47;;;;;;;;;;;;;;;35.06;14.96;96409.19;6372711;27;19923;-69
2022/07/02 11:39:50;;;;;;;;;;;;;;;34.65;15.79;96408.94;6372761;27;19928;-68
2022/07/02 11:42:54;;;;;;;;;;;;;;;33.81;16.95;96395.97;6371558;27;19935;-68
2022/07/02 11:45:55;;;;;;;;;;;;;;;32.94;17.61;96401.25;6352995;27;20409;-68
2022/07/02 11:48:58;;;;;;;;;;;;;;;32.40;18.10;96407.28;6371263;27;20312;-68
2022/07/02 11:52:04;;;;;;;;;;;;;;;32.82;18.07;96403.28;6372222;27;19923;-68
2022/07/02 11:55:05;;;;;;;;;;;;;;;32.77;18.02;96411.38;6371356;27;20392;-69
2022/07/02 11:58:06;;;;;;;;;;;;;;;32.19;18.56;96406.16;6372329;27;20305;-68
2022/07/02 12:01:24;;;;;;;;;;;;;;;31.50;20.02;96416.34;6372151;27;20304;-68
2022/07/02 12:04:28;;;;;;;;;;;;;;;31.01;20.18;96413.19;6372171;27;19923;-68
2022/07/02 12:07:32;;;;;;;;;;;;;;;30.42;20.83;96424.91;6372261;27;19929;-68
2022/07/02 12:10:39;;;;;;;;;;;;;;;30.64;20.48;96424.31;6371628;27;19946;-67
2022/07/02 12:13:41;;;;;;;;;;;;;;;31.30;20.17;96425.72;6371912;27;19926;-67
2022/07/02 12:16:46;;;;;;;;;;;;;;;31.86;19.61;96433.31;6370883;27;19935;-68
2022/07/02 12:19:53;;;;;;;;;;;;;;;32.27;19.17;96434.00;6371579;27;19923;-68
2022/07/02 12:22:56;;;;;;;;;;;;;;;32.76;18.66;96436.97;6371485;27;19923;-69
2022/07/02 12:26:01;;;;;;;;;;;;;;;33.02;18.08;96424.53;6353929;27;19975;-67
2022/07/02 12:32:28;;;;;;;;;;;;;;;33.21;18.06;96441.41;6371500;27;19923;-68
2022/07/02 12:35:29;;;;;;;;;;;;;;;33.08;17.95;96429.78;6370764;27;19930;-68
2022/07/02 12:38:44;;;;;;;;;;;;;;;32.29;18.51;96426.44;6352672;27;19923;-68
2022/07/02 12:41:52;;;;;;;;;;;;;;;31.41;19.01;96431.41;6371810;27;19923;-67
2022/07/02 12:45:00;;;;;;;;;;;;;;;31.18;19.70;96422.22;6352821;27;20016;-68
2022/07/02 12:48:07;;;;;;;;;;;;;;;31.20;19.21;96425.53;6371354;27;19923;-69
2022/07/02 12:51:09;;;;;;;;;;;;;;;31.29;19.39;96429.50;6370756;27;19976;-67
2022/07/02 12:54:15;;;;;;;;;;;;;;;31.44;19.13;96430.91;6371466;27;19924;-69
2022/07/02 12:57:19;;;;;;;;;;;;;;;31.20;18.96;96425.53;6371318;27;19927;-68
2022/07/02 13:00:23;;;;;;;;;;;;;;;31.05;19.12;96417.06;6370553;28;19967;-68
2022/07/02 13:03:28;;;;;;;;;;;;;;;30.90;19.22;96419.47;6370024;28;20121;-68
2022/07/02 13:06:33;;;;;;;;;;;;;;;30.49;19.62;96413.94;6371060;28;20396;-68
2022/07/02 13:09:34;;;;;;;;;;;;;;;29.98;19.95;96424.38;6371057;28;19935;-68
2022/07/02 13:12:37;;;;;;;;;;;;;;;29.21;20.75;96423.38;6370070;28;19924;-68
2022/07/02 13:15:39;;;;;;;;;;;;;;;28.48;21.60;96425.00;6370158;28;20004;-68
2022/07/02 13:18:42;;;;;;;;;;;;;;;27.61;22.27;96432.09;6371160;28;19923;-68
2022/07/02 13:21:47;;;;;;;;;;;;;;;27.13;22.78;96425.25;6370913;27;19919;-67
2022/07/02 13:24:48;;;;;;;;;;;;;;;26.73;22.80;96422.72;6375666;27;19932;-67
2022/07/02 13:27:49;;;;;;;;;;;;;;;26.52;23.69;96425.66;6356584;27;20047;-68
2022/07/02 13:30:53;;;;;;;;;;;;;;;26.24;23.60;96421.31;6375889;27;19923;-68
2022/07/02 13:33:56;;;;;;;;;;;;;;;26.15;24.22;96430.66;6375924;27;19923;-68
2022/07/02 13:36:57;;;;;;;;;;;;;;;25.89;24.08;96431.50;6374991;27;20064;-68
2022/07/02 13:39:58;;;;;;;;;;;;;;;25.83;24.83;96432.31;6374942;27;19923;-67
2022/07/02 13:43:02;;;;;;;;;;;;;;;25.92;24.88;96437.28;6374696;27;19934;-68
2022/07/02 13:46:03;;;;;;;;;;;;;;;26.07;25.72;96428.16;6375056;27;19971;-67
2022/07/02 13:49:04;;;;;;;;;;;;;;;26.23;25.23;96435.84;6374394;27;20309;-67
2022/07/02 13:52:08;;;;;;;;;;;;;;;26.49;25.61;96442.25;6374782;27;20285;-68
2022/07/02 13:55:10;;;;;;;;;;;;;;;26.40;24.98;96439.75;6374403;27;20385;-67
2022/07/02 13:58:12;;;;;;;;;;;;;;;26.22;25.50;96442.28;6375558;27;19935;-67
2022/07/02 14:01:17;;;;;;;;;;;;;;;25.85;25.71;96443.72;6375354;27;20420;-67
2022/07/02 14:04:21;;;;;;;;;;;;;;;25.47;25.57;96439.69;6375170;27;20030;-67
2022/07/02 14:07:26;;;;;;;;;;;;;;;25.24;26.17;96439.22;6375059;27;19923;-67
2022/07/02 14:10:30;;;;;;;;;;;;;;;25.00;26.02;96441.38;6374664;27;19927;-68
2022/07/02 14:13:33;;;;;;;;;;;;;;;24.81;26.42;96432.16;6356888;27;19923;-67
2022/07/02 14:16:37;;;;;;;;;;;;;;;24.71;26.78;96433.56;6374838;27;19923;-68
2022/07/02 14:19:38;;;;;;;;;;;;;;;24.82;26.92;96433.81;6374829;27;19923;-68
2022/07/02 14:22:45;;;;;;;;;;;;;;;25.06;27.37;96432.50;6355579;27;19946;-67
2022/07/02 14:25:49;;;;;;;;;;;;;;;25.24;27.23;96433.81;6373794;27;19924;-68
2022/07/02 14:28:55;;;;;;;;;;;;;;;25.33;27.65;96432.59;6356684;27;20312;-67
2022/07/02 14:31:58;;;;;;;;;;;;;;;25.34;27.49;96434.28;6374504;27;20254;-68
2022/07/02 14:34:59;;;;;;;;;;;;;;;25.20;27.75;96428.03;6373239;27;20307;-68
2022/07/02 14:38:01;;;;;;;;;;;;;;;25.09;28.55;96432.09;6374389;27;19923;-68
2022/07/02 14:44:37;;;;;;;;;;;;;;;24.84;28.72;96428.25;6328724;27;19928;-68
2022/07/02 14:47:40;;;;;;;;;;;;;;;24.77;29.14;96428.22;6374076;27;20392;-69
2022/07/02 14:50:46;;;;;;;;;;;;;;;24.54;29.31;96427.66;6374233;27;19923;-67
2022/07/02 14:53:48;;;;;;;;;;;;;;;24.31;29.80;96425.22;6373269;27;20392;-67
2022/07/02 14:56:52;;;;;;;;;;;;;;;24.09;30.17;96430.66;6373718;27;19927;-68
2022/07/02 14:59:56;;;;;;;;;;;;;;;23.88;30.86;96433.38;6373678;27;20037;-67
2022/07/02 15:02:59;;;;;;;;;;;;;;;23.66;31.13;96435.22;6373678;27;19922;-69
2022/07/02 15:06:03;;;;;;;;;;;;;;;23.55;31.26;96433.84;6373800;27;20398;-67
2022/07/02 15:09:10;;;;;;;;;;;;;;;23.56;31.91;96435.53;6373507;27;20444;-68
2022/07/02 15:12:13;;;;;;;;;;;;;;;23.59;31.93;96435.16;6373103;27;19923;-68
2022/07/02 15:18:39;;;;;;;;;;;;;;;23.73;31.88;96428.09;6373506;27;20313;-68
2022/07/02 15:21:47;;;;;;;;;;;;;;;23.46;32.08;96432.31;6372645;27;19924;-68
2022/07/02 15:24:52;;;;;;;;;;;;;;;23.16;32.34;96424.38;6373119;27;19923;-67
2022/07/02 15:27:59;;;;;;;;;;;;;;;22.95;32.84;96417.09;6346874;28;19924;-68
2022/07/02 15:31:00;;;;;;;;;;;;;;;22.81;33.13;96423.28;6347805;28;19930;-68
2022/07/02 15:34:01;;;;;;;;;;;;;;;22.60;33.27;96426.75;6347440;28;20309;-67
2022/07/02 15:37:03;;;;;;;;;;;;;;;22.43;33.53;96426.09;6347327;28;20439;-68
2022/07/02 15:40:05;;;;;;;;;;;;;;;22.22;33.77;96429.47;6347157;28;19924;-67
2022/07/02 15:43:07;;;;;;;;;;;;;;;22.01;34.00;96424.00;6347413;28;19924;-67
2022/07/02 15:46:10;;;;;;;;;;;;;;;21.87;34.23;96429.13;6346360;28;19924;-67
2022/07/02 15:49:14;;;;;;;;;;;;;;;21.75;34.80;96426.06;6347014;28;20026;-67
2022/07/02 15:52:33;;;;;;;;;;;;;;;21.68;35.57;96424.25;6347076;28;19924;-68
2022/07/02 15:55:39;;;;;;;;;;;;;;;21.48;35.57;96435.44;6345859;28;19923;-68
2022/07/02 15:58:50;;;;;;;;;;;;;;;21.25;35.82;96431.91;6347061;28;19928;-67
2022/07/02 16:01:54;;;;;;;;;;;;;;;21.08;35.90;96440.03;6346680;28;19924;-68
2022/07/02 16:05:01;;;;;;;;;;;;;;;20.96;35.94;96435.25;6346697;27;19930;-67
2022/07/02 16:08:05;;;;;;;;;;;;;;;20.88;36.62;96444.13;6346465;28;19931;-68
2022/07/02 16:11:09;;;;;;;;;;;;;;;20.77;36.80;96441.84;6346581;28;19924;-68
2022/07/02 16:14:11;;;;;;;;;;;;;;;20.63;36.90;96436.22;6346308;28;19927;-69